createdAt,value
2023-05-05T00:00:15.533Z,65.00
2023-05-05T00:03:02.890Z,66.80
2023-05-05T00:05:30.674Z,67.20
2023-05-05T00:07:57.968Z,67.50
2023-05-05T00:10:25.665Z,68.10
2023-05-05T00:12:52.864Z,68.50
2023-05-05T00:15:20.435Z,68.40
2023-05-05T00:17:47.856Z,68.60
2023-05-05T00:20:15.358Z,69.00
2023-05-05T00:22:42.546Z,68.90
2023-05-05T00:25:10.144Z,68.30
2023-05-05T00:27:39.468Z,67.90
2023-05-05T00:30:08.815Z,67.50
2023-05-05T00:32:36.496Z,67.30
2023-05-05T00:35:04.355Z,67.40
2023-05-05T00:37:31.537Z,66.30
2023-05-05T00:39:59.267Z,65.50
2023-05-05T00:42:27.113Z,65.50
2023-05-05T00:44:54.566Z,65.20
2023-05-05T00:47:21.817Z,64.40
2023-05-05T00:49:49.377Z,64.10
2023-05-05T00:52:16.603Z,64.00
2023-05-05T00:54:44.524Z,64.10
2023-05-05T00:57:11.792Z,64.40
2023-05-05T00:59:39.565Z,64.10
2023-05-05T01:02:06.889Z,63.90
2023-05-05T01:04:34.580Z,64.20
2023-05-05T01:07:38.807Z,64.10
2023-05-05T01:10:41.062Z,64.00
2023-05-05T01:13:27.784Z,64.20
2023-05-05T01:16:09.663Z,64.80
2023-05-05T01:18:46.407Z,65.10
2023-05-05T01:21:28.333Z,65.00
2023-05-05T01:24:01.514Z,64.90
2023-05-05T01:26:53.851Z,65.10
2023-05-05T01:29:39.698Z,64.90
2023-05-05T01:32:13.570Z,64.90
2023-05-05T01:35:04.337Z,65.00
2023-05-05T01:38:01.550Z,64.60
2023-05-05T01:40:33.615Z,65.00
2023-05-05T01:43:03.723Z,65.10
2023-05-05T01:45:35.740Z,65.00
2023-05-05T01:48:05.400Z,65.50
2023-05-05T01:50:33.817Z,65.90
2023-05-05T01:53:03.734Z,66.30
2023-05-05T01:55:32.401Z,65.80
2023-05-05T01:58:01.473Z,65.80
2023-05-05T02:00:30.496Z,66.10
2023-05-05T02:02:59.895Z,66.10
2023-05-05T02:05:29.180Z,66.50
2023-05-05T02:07:59.222Z,66.50
2023-05-05T02:10:28.553Z,66.40
2023-05-05T02:12:57.090Z,66.40
2023-05-05T02:15:25.970Z,67.80
2023-05-05T02:17:54.282Z,67.30
2023-05-05T02:20:24.281Z,67.10
2023-05-05T02:22:51.780Z,67.50
2023-05-05T02:25:19.054Z,67.30
2023-05-05T02:27:48.203Z,67.40
2023-05-05T02:30:19.829Z,67.50
2023-05-05T02:32:56.266Z,67.60
2023-05-05T02:35:38.164Z,67.50
2023-05-05T02:38:17.263Z,67.80
2023-05-05T02:40:48.391Z,68.00
2023-05-05T02:43:21.621Z,68.70
2023-05-05T02:45:49.141Z,68.80
2023-05-05T02:48:17.491Z,68.90
2023-05-05T02:50:44.723Z,69.10
2023-05-05T02:53:25.867Z,69.20
2023-05-05T02:55:57.264Z,69.70
2023-05-05T02:58:37.283Z,69.70
2023-05-05T03:01:20.338Z,70.10
2023-05-05T03:04:00.393Z,70.20
2023-05-05T03:06:29.163Z,69.80
2023-05-05T03:09:14.392Z,70.10
2023-05-05T03:11:54.118Z,70.20
2023-05-05T03:14:22.663Z,70.30
2023-05-05T03:16:52.194Z,70.50
2023-05-05T03:19:21.349Z,70.80
2023-05-05T03:21:53.379Z,71.10
2023-05-05T03:24:21.367Z,70.00
2023-05-05T03:27:03.739Z,70.30
2023-05-05T03:29:36.352Z,70.00
2023-05-05T03:32:06.080Z,70.10
2023-05-05T03:34:37.327Z,70.00
2023-05-05T03:37:05.757Z,69.90
2023-05-05T03:39:33.443Z,69.90
2023-05-05T03:42:00.880Z,69.90
2023-05-05T03:44:32.136Z,69.50
2023-05-05T03:46:59.645Z,69.50
2023-05-05T03:49:28.391Z,69.20
2023-05-05T03:51:55.844Z,68.90
2023-05-05T03:54:24.856Z,68.60
2023-05-05T03:56:52.609Z,68.60
2023-05-05T03:59:20.126Z,68.60
2023-05-05T04:01:49.021Z,68.30
2023-05-05T04:04:17.004Z,68.70
2023-05-05T04:06:44.264Z,68.60
2023-05-05T04:09:12.403Z,68.50
2023-05-05T04:11:39.637Z,68.00
2023-05-05T04:14:08.097Z,68.00
2023-05-05T04:16:35.479Z,67.80
2023-05-05T04:19:03.990Z,67.50
2023-05-05T04:21:32.590Z,67.60
2023-05-05T04:24:00.291Z,67.60
2023-05-05T04:26:27.845Z,66.90
2023-05-05T04:28:56.185Z,66.40
2023-05-05T04:31:23.827Z,66.40
2023-05-05T04:33:51.999Z,66.40
2023-05-05T04:36:19.549Z,66.50
2023-05-05T04:38:48.151Z,66.10
2023-05-05T04:41:15.574Z,65.90
2023-05-05T04:43:44.454Z,65.80
2023-05-05T04:46:11.834Z,65.50
2023-05-05T04:48:39.387Z,66.20
2023-05-05T04:51:07.719Z,65.70
2023-05-05T04:53:36.729Z,65.10
2023-05-05T04:56:04.263Z,64.80
2023-05-05T04:58:31.853Z,64.20
2023-05-05T05:00:59.219Z,63.10
2023-05-05T05:03:26.876Z,63.10
2023-05-05T05:05:54.451Z,62.50
2023-05-05T05:08:21.945Z,61.80
2023-05-05T05:10:49.306Z,61.40
2023-05-05T05:13:17.945Z,60.90
2023-05-05T05:15:45.921Z,60.50
2023-05-05T05:18:13.520Z,60.70
2023-05-05T05:20:40.825Z,60.30
2023-05-05T05:23:08.471Z,60.00
2023-05-05T05:25:40.408Z,60.30
2023-05-05T05:28:10.756Z,60.00
2023-05-05T05:30:44.339Z,59.70
2023-05-05T05:33:12.560Z,59.50
2023-05-05T05:35:40.858Z,59.50
2023-05-05T05:38:09.436Z,58.90
2023-05-05T05:40:37.198Z,58.80
2023-05-05T05:43:04.823Z,58.20
2023-05-05T05:45:33.330Z,58.00
2023-05-05T05:48:03.968Z,58.10
2023-05-05T05:50:31.537Z,57.70
2023-05-05T05:52:59.955Z,57.10
2023-05-05T05:55:29.577Z,56.80
2023-05-05T05:57:57.434Z,56.90
2023-05-05T06:00:25.551Z,57.30
2023-05-05T06:03:00.576Z,56.10
2023-05-05T06:05:31.438Z,55.90
2023-05-05T06:07:59.462Z,56.70
2023-05-05T06:10:28.625Z,55.90
2023-05-05T06:13:02.332Z,55.30
2023-05-05T06:15:31.243Z,55.20
2023-05-05T06:18:00.149Z,54.30
2023-05-05T06:20:27.622Z,53.80
2023-05-05T06:22:55.698Z,53.90
2023-05-05T06:25:23.770Z,53.30
2023-05-05T06:27:52.466Z,52.60
2023-05-05T06:30:19.760Z,52.50
2023-05-05T06:32:47.274Z,52.80
2023-05-05T06:35:14.577Z,51.70
2023-05-05T06:37:42.136Z,51.10
2023-05-05T06:40:10.558Z,51.80
2023-05-05T06:42:38.248Z,51.00
2023-05-05T06:45:09.313Z,51.40
2023-05-05T06:47:37.303Z,52.00
2023-05-05T06:50:05.389Z,50.40
2023-05-05T06:52:33.182Z,50.70
2023-05-05T06:55:00.574Z,51.20
2023-05-05T06:57:28.196Z,51.40
2023-05-05T06:59:55.576Z,51.30
2023-05-05T07:02:24.080Z,51.10
2023-05-05T07:04:55.436Z,50.20
2023-05-05T07:07:23.257Z,50.20
2023-05-05T07:09:50.484Z,49.80
2023-05-05T07:12:18.066Z,50.30
2023-05-05T07:14:46.667Z,49.10
2023-05-05T07:17:14.319Z,49.10
2023-05-05T07:19:41.640Z,48.30
2023-05-05T07:22:09.114Z,48.20
2023-05-05T07:24:36.956Z,50.00
2023-05-05T07:27:04.622Z,48.60
2023-05-05T07:29:32.017Z,48.10
2023-05-05T07:31:59.473Z,48.80
2023-05-05T07:34:27.627Z,47.60
2023-05-05T07:36:56.441Z,47.80
2023-05-05T07:39:23.770Z,47.20
2023-05-05T07:41:51.483Z,45.30
2023-05-05T07:44:18.743Z,44.20
2023-05-05T07:46:46.233Z,44.40
2023-05-05T07:49:13.572Z,44.30
2023-05-05T07:51:41.051Z,44.20
2023-05-05T07:54:08.630Z,42.80
2023-05-05T07:56:36.239Z,43.30
2023-05-05T07:59:03.798Z,43.10
2023-05-05T08:01:31.554Z,44.40
2023-05-05T08:03:59.011Z,44.50
2023-05-05T08:06:27.879Z,44.60
2023-05-05T08:08:55.518Z,44.90
2023-05-05T08:11:23.092Z,46.50
2023-05-05T08:13:50.338Z,46.70
2023-05-05T08:16:18.238Z,45.30
2023-05-05T08:18:45.600Z,46.10
2023-05-05T08:21:13.126Z,44.90
2023-05-05T08:23:40.681Z,44.40
2023-05-05T08:26:09.264Z,45.00
2023-05-05T08:28:36.927Z,45.00
2023-05-05T08:31:05.738Z,44.30
2023-05-05T08:33:34.003Z,42.70
2023-05-05T08:36:01.913Z,44.20
2023-05-05T08:38:29.183Z,46.60
2023-05-05T08:40:56.870Z,43.80
2023-05-05T08:43:24.531Z,46.20
2023-05-05T08:45:52.393Z,46.20
2023-05-05T08:48:22.941Z,44.30
2023-05-05T08:50:55.858Z,47.10
2023-05-05T08:53:41.466Z,47.00
2023-05-05T08:56:11.583Z,44.00
2023-05-05T08:58:40.337Z,45.40
2023-05-05T09:01:08.144Z,46.40
2023-05-05T09:03:37.083Z,45.50
2023-05-05T09:06:04.998Z,49.20
2023-05-05T09:08:33.206Z,47.60
2023-05-05T09:11:01.688Z,48.70
2023-05-05T09:13:30.814Z,46.20
2023-05-05T09:15:59.286Z,47.80
2023-05-05T09:18:26.979Z,50.50
2023-05-05T09:20:56.417Z,47.60
2023-05-05T09:23:25.422Z,47.00
2023-05-05T09:26:08.422Z,47.30
2023-05-05T09:28:36.492Z,46.90
2023-05-05T09:31:15.924Z,47.10
2023-05-05T09:33:43.815Z,49.30
2023-05-05T09:36:12.296Z,49.10
2023-05-05T09:38:39.539Z,45.40
2023-05-05T09:41:07.142Z,44.50
2023-05-05T09:43:51.948Z,48.30
2023-05-05T09:46:20.182Z,48.20
2023-05-05T09:48:47.650Z,45.70
2023-05-05T09:51:15.786Z,45.30
2023-05-05T09:53:43.750Z,44.00
2023-05-05T09:56:12.312Z,46.70
2023-05-05T09:58:39.590Z,43.20
2023-05-05T10:01:23.117Z,42.60
2023-05-05T10:03:54.133Z,46.10
2023-05-05T10:06:39.206Z,46.60
2023-05-05T10:09:06.569Z,45.60
2023-05-05T10:11:35.066Z,46.00
2023-05-05T10:14:04.879Z,43.20
2023-05-05T10:16:33.562Z,43.10
2023-05-05T10:19:03.183Z,43.20
2023-05-05T10:21:36.043Z,44.80
2023-05-05T10:24:16.640Z,44.20
2023-05-05T10:26:46.330Z,45.20
2023-05-05T10:29:31.597Z,43.00
2023-05-05T10:32:47.462Z,41.70
2023-05-05T10:35:09.194Z,43.10
2023-05-05T10:37:38.113Z,42.40
2023-05-05T10:40:07.349Z,42.20
2023-05-05T10:42:40.705Z,43.10
2023-05-05T10:45:08.836Z,42.80
2023-05-05T10:47:38.443Z,41.40
2023-05-05T10:50:24.177Z,42.00
2023-05-05T10:53:09.360Z,40.60
2023-05-05T10:56:05.279Z,41.50
2023-05-05T10:58:51.051Z,39.20
2023-05-05T11:01:32.077Z,39.60
2023-05-05T11:04:22.419Z,40.50
2023-05-05T11:09:59.243Z,41.90
2023-05-05T11:12:26.842Z,42.90
2023-05-05T11:15:28.470Z,43.30
2023-05-05T11:17:58.006Z,43.00
2023-05-05T11:20:39.931Z,42.50
2023-05-05T11:23:07.412Z,43.00
2023-05-05T11:25:35.550Z,43.90
2023-05-05T11:38:46.747Z,43.50
2023-05-05T11:43:50.565Z,44.40
2023-05-05T11:51:18.816Z,43.10
2023-05-05T12:04:01.327Z,43.00
2023-05-05T12:06:33.405Z,45.50
2023-05-05T12:09:01.346Z,46.20
2023-05-05T12:11:28.896Z,45.80
2023-05-05T12:14:10.743Z,46.20
2023-05-05T12:16:39.248Z,46.40
2023-05-05T12:19:08.019Z,45.40
2023-05-05T12:29:01.027Z,45.30
2023-05-05T12:31:42.103Z,46.20
2023-05-05T12:34:11.228Z,46.60
2023-05-05T12:36:39.541Z,46.40
2023-05-05T12:39:06.769Z,45.20
2023-05-05T12:41:35.005Z,46.50
2023-05-05T12:44:03.361Z,48.20
2023-05-05T12:46:32.008Z,47.70
2023-05-05T12:49:07.935Z,47.80
2023-05-05T12:51:37.831Z,48.50
2023-05-05T12:54:09.558Z,48.10
2023-05-05T12:56:41.308Z,47.90
2023-05-05T12:59:28.504Z,48.30
2023-05-05T13:02:01.486Z,48.10
2023-05-05T13:04:29.531Z,47.10
2023-05-05T13:07:14.145Z,47.00
2023-05-05T13:09:42.034Z,48.00
2023-05-05T13:12:12.066Z,48.10
2023-05-05T13:14:40.871Z,48.00
2023-05-05T13:17:08.640Z,49.50
2023-05-05T13:19:41.718Z,48.50
2023-05-05T13:37:13.486Z,49.20
2023-05-05T13:39:40.880Z,48.60
2023-05-05T13:42:08.751Z,49.20
2023-05-05T13:44:36.151Z,49.20
2023-05-05T13:52:00.004Z,48.20
2023-05-05T13:54:28.125Z,47.90
2023-05-05T13:56:55.811Z,47.50
2023-05-05T13:59:23.006Z,47.90
2023-05-05T14:01:50.819Z,47.40
2023-05-05T14:04:18.331Z,47.40
2023-05-05T14:06:47.205Z,47.20
2023-05-05T14:09:14.559Z,48.20
2023-05-05T14:11:42.724Z,48.50
2023-05-05T14:14:10.089Z,48.70
2023-05-05T14:16:37.657Z,48.80
2023-05-05T14:19:05.281Z,48.00
2023-05-05T14:21:32.810Z,48.40
2023-05-05T14:24:00.211Z,48.00
2023-05-05T14:26:27.630Z,47.50
2023-05-05T14:28:54.984Z,47.50
2023-05-05T14:31:22.639Z,47.50
2023-05-05T14:33:49.964Z,47.10
2023-05-05T14:38:45.952Z,46.30
2023-05-05T14:43:41.325Z,46.00
2023-05-05T14:46:10.559Z,45.10
2023-05-05T14:48:37.922Z,45.90
2023-05-05T14:51:05.415Z,47.30
2023-05-05T14:53:34.099Z,49.40
2023-05-05T14:56:02.463Z,49.30
2023-05-05T14:58:29.747Z,47.40
2023-05-05T15:00:57.256Z,46.60
2023-05-05T15:03:24.701Z,47.80
2023-05-05T15:05:52.537Z,48.50
2023-05-05T15:08:19.863Z,47.60
2023-05-05T15:10:47.725Z,45.20
2023-05-05T15:13:15.070Z,45.80
2023-05-05T15:18:11.697Z,43.60
2023-05-05T15:20:39.362Z,40.50
2023-05-05T15:42:50.920Z,39.10
2023-05-05T15:52:42.180Z,41.80
2023-05-05T15:55:10.618Z,45.70
2023-05-05T15:57:39.873Z,46.40
2023-05-05T16:00:08.517Z,44.60
2023-05-05T16:02:35.993Z,44.40
2023-05-05T16:05:04.643Z,45.30
2023-05-05T16:07:32.023Z,46.20
2023-05-05T16:09:59.687Z,45.10
2023-05-05T16:12:27.206Z,44.90
2023-05-05T16:14:54.676Z,46.80
2023-05-05T16:17:22.806Z,47.80
2023-05-05T16:19:52.739Z,47.60
2023-05-05T16:22:21.029Z,47.10
2023-05-05T16:24:48.498Z,47.10
2023-05-05T16:27:16.715Z,48.90
2023-05-05T16:29:44.417Z,52.10
2023-05-05T16:32:12.368Z,53.70
2023-05-05T16:34:40.024Z,54.10
2023-05-05T16:37:07.356Z,52.50
2023-05-05T16:39:39.986Z,53.00
2023-05-05T16:42:07.415Z,52.20
2023-05-05T16:44:34.954Z,51.20
2023-05-05T16:47:02.437Z,48.90
2023-05-05T16:49:30.243Z,49.40
2023-05-05T16:51:57.518Z,49.90
2023-05-05T16:54:25.104Z,48.80
2023-05-05T16:56:52.347Z,49.10
2023-05-05T16:59:19.818Z,52.80
2023-05-05T17:01:47.201Z,54.50
2023-05-05T17:04:14.850Z,54.20
2023-05-05T17:06:44.442Z,51.50
2023-05-05T17:09:12.310Z,51.70
2023-05-05T17:11:39.733Z,49.60
2023-05-05T17:14:07.567Z,50.40
2023-05-05T17:16:34.957Z,51.50
2023-05-05T17:19:02.399Z,53.70
2023-05-05T17:21:30.052Z,53.90
2023-05-05T17:23:57.719Z,55.00
2023-05-05T17:26:25.168Z,57.30
2023-05-05T17:28:52.680Z,58.90
2023-05-05T17:31:19.931Z,60.40
2023-05-05T17:33:47.535Z,61.60
2023-05-05T17:36:14.820Z,61.70
2023-05-05T17:38:42.576Z,61.70
2023-05-05T17:41:09.774Z,61.40
2023-05-05T17:43:37.271Z,62.40
2023-05-05T17:46:04.803Z,63.40
2023-05-05T17:48:33.868Z,63.30
2023-05-05T17:51:01.358Z,63.60
2023-05-05T17:53:28.844Z,63.90
2023-05-05T17:55:56.036Z,64.50
2023-05-05T17:58:23.767Z,64.70
2023-05-05T18:00:51.071Z,65.10
2023-05-05T18:03:18.991Z,65.20
2023-05-05T18:05:47.313Z,65.30
2023-05-05T18:08:14.841Z,65.50
2023-05-05T18:10:42.275Z,65.90
2023-05-05T18:13:09.775Z,66.20
2023-05-05T18:15:37.230Z,66.40
2023-05-05T18:18:06.265Z,66.60
2023-05-05T18:20:33.493Z,66.90
2023-05-05T18:23:01.135Z,67.20
2023-05-05T18:25:28.517Z,67.40
2023-05-05T18:27:56.212Z,67.70
2023-05-05T18:30:23.609Z,67.70
2023-05-05T18:32:51.708Z,67.90
2023-05-05T18:35:19.043Z,68.10
2023-05-05T18:37:46.936Z,68.20
2023-05-05T18:40:14.388Z,68.30
2023-05-05T18:42:42.737Z,68.70
2023-05-05T18:45:11.389Z,68.60
2023-05-05T18:47:39.660Z,68.50
2023-05-05T18:50:07.553Z,68.70
2023-05-05T18:52:35.050Z,68.80
2023-05-05T18:55:02.478Z,68.90
2023-05-05T18:57:30.024Z,68.80
2023-05-05T18:59:57.222Z,69.20
2023-05-05T19:02:24.663Z,69.60
2023-05-05T19:04:52.029Z,69.80
2023-05-05T19:10:07.465Z,69.80
2023-05-05T19:12:35.129Z,69.90
2023-05-05T19:15:03.140Z,70.20
2023-05-05T19:17:31.672Z,70.40
2023-05-05T19:19:59.182Z,71.70
2023-05-05T19:22:26.765Z,71.80
2023-05-05T19:24:53.994Z,71.50
2023-05-05T19:27:21.627Z,70.90
2023-05-05T19:29:52.680Z,71.30
2023-05-05T19:32:21.281Z,71.40
2023-05-05T19:34:48.961Z,71.60
2023-05-05T19:37:16.543Z,71.80
2023-05-05T19:39:45.737Z,72.40
2023-05-05T19:42:13.391Z,72.10
2023-05-05T19:44:40.945Z,72.20
2023-05-05T19:47:10.862Z,72.40
2023-05-05T19:49:38.636Z,72.10
2023-05-05T19:52:09.047Z,72.50
2023-05-05T19:54:37.139Z,72.50
2023-05-05T19:57:05.378Z,72.50
2023-05-05T19:59:33.944Z,72.40
2023-05-05T20:02:01.614Z,72.40
2023-05-05T20:04:28.969Z,72.50
2023-05-05T20:06:57.275Z,72.30
2023-05-05T20:09:24.458Z,72.60
2023-05-05T20:11:52.244Z,72.90
2023-05-05T20:14:19.523Z,72.90
2023-05-05T20:16:47.062Z,72.90
2023-05-05T20:19:14.382Z,72.80
2023-05-05T20:21:41.897Z,73.40
2023-05-05T20:24:09.537Z,73.00
2023-05-05T20:26:37.826Z,73.20
2023-05-05T20:29:05.202Z,73.10
2023-05-05T20:31:34.864Z,73.10
2023-05-05T20:34:02.226Z,73.20
2023-05-05T20:36:30.218Z,73.40
2023-05-05T20:38:57.629Z,73.70
2023-05-05T20:41:25.185Z,73.80
2023-05-05T20:43:52.361Z,74.30
2023-05-05T20:46:19.839Z,73.80
2023-05-05T20:48:47.224Z,74.00
2023-05-05T20:51:14.973Z,74.30
2023-05-05T20:53:42.602Z,74.60
2023-05-05T20:56:10.798Z,74.80
2023-05-05T20:58:38.003Z,74.90
2023-05-05T21:01:05.573Z,75.00
2023-05-05T21:03:34.567Z,74.80
2023-05-05T21:06:03.488Z,75.10
2023-05-05T21:08:31.220Z,75.20
2023-05-05T21:10:58.703Z,75.30
2023-05-05T21:13:25.967Z,75.70
2023-05-05T21:15:53.394Z,75.60
2023-05-05T21:18:20.761Z,75.70
2023-05-05T21:20:48.304Z,76.00
2023-05-05T21:23:15.610Z,76.10
2023-05-05T21:25:43.217Z,76.40
2023-05-05T21:28:11.118Z,79.60
2023-05-05T21:30:39.161Z,81.20
2023-05-05T21:33:06.490Z,86.10
2023-05-05T21:35:33.947Z,90.80
2023-05-05T21:38:01.758Z,91.50
2023-05-05T21:40:29.335Z,91.90
2023-05-05T21:42:56.573Z,92.40
2023-05-05T21:45:24.117Z,91.60
2023-05-05T21:47:51.448Z,89.90
2023-05-05T21:50:19.388Z,92.70
2023-05-05T21:52:46.541Z,83.20
2023-05-05T21:55:14.038Z,79.10
2023-05-05T21:57:44.606Z,78.50
2023-05-05T22:00:16.871Z,77.10
2023-05-05T22:02:45.299Z,76.90
2023-05-05T22:05:13.423Z,77.20
2023-05-05T22:07:40.847Z,77.30
2023-05-05T22:10:09.117Z,77.50
2023-05-05T22:12:36.699Z,78.00
2023-05-05T22:15:04.671Z,78.20
2023-05-05T22:17:31.986Z,78.50
2023-05-05T22:19:59.787Z,78.90
2023-05-05T22:22:27.077Z,79.20
2023-05-05T22:24:54.707Z,79.40
2023-05-05T22:27:22.114Z,79.90
2023-05-05T22:29:49.913Z,79.70
2023-05-05T22:32:17.356Z,80.10
2023-05-05T22:34:44.839Z,80.10
2023-05-05T22:37:12.117Z,80.00
2023-05-05T22:39:39.711Z,80.40
2023-05-05T22:42:07.020Z,80.90
2023-05-05T22:44:35.041Z,80.70
2023-05-05T22:47:03.484Z,81.10
2023-05-05T22:49:31.707Z,81.40
2023-05-05T22:51:58.983Z,81.40
2023-05-05T22:54:26.716Z,81.70
2023-05-05T22:56:54.076Z,81.90
2023-05-05T22:59:21.648Z,82.10
2023-05-05T23:01:48.894Z,82.40
2023-05-05T23:04:16.688Z,82.40
2023-05-05T23:06:44.913Z,82.60
2023-05-05T23:09:12.869Z,82.80
2023-05-05T23:11:40.332Z,83.20
2023-05-05T23:14:08.148Z,83.20
2023-05-05T23:16:35.460Z,83.50
2023-05-05T23:19:02.972Z,83.60
2023-05-05T23:21:33.862Z,84.10
2023-05-05T23:24:03.995Z,84.10
2023-05-05T23:26:31.367Z,84.50
2023-05-05T23:28:58.855Z,84.60
2023-05-05T23:31:26.306Z,85.00
2023-05-05T23:33:54.185Z,85.20
2023-05-05T23:36:21.502Z,85.30
2023-05-05T23:38:49.191Z,85.70
2023-05-05T23:41:18.418Z,85.70
2023-05-05T23:43:46.097Z,85.80
2023-05-05T23:46:13.339Z,85.80
2023-05-05T23:48:40.858Z,86.00
2023-05-05T23:51:08.089Z,86.10
2023-05-05T23:53:35.573Z,86.40
2023-05-05T23:56:03.794Z,86.50
2023-05-05T23:58:31.332Z,86.50
